^^

..:: Storico WU ::..




Lo storico viene creato da WUnderground con i dati che la stazione Meteomincio invia al loro server. L' aggiornamento viene fatto ogni 5 minuti circa, tuttavia possono esserci intervalli pił ampi a causa di errori, interruzioni di servizio o problemi nell' invio tramite FTP.


Storico stazione MeteoMincio
Giorno Sommario per Settembre 20, 2022 Unità:  Inglese    Metrico   Entrambi
Giorno Settimana Mese Anno
  Max: Min: Media:
Temperatura: 73.4 °F 53.6 °F 63.7 °F
Dew Point: 59 °F 46.4 °F 52.9 °F
Umidità: 84% 51% 69%
Velocità vento: 9.9mph 0mph 4.6mph
Raffica: 14.3mph - -
Direzione- - East
Pressione: 30.1 in 30 in -
Precipitazioni: 0 in    
 
 
Tabulato Dati per Settembre 20, 2022
Ora Temperatura Dew Point Pressione Direzione Velocità vento Raffica Umidità Intensità pioggia (oraria) Info solare Situazione
00:04 59 °F 50 °F 30 in NE 5 mph 6.8 mph 73% 0 in 0.00 W/m2 unknown
00:09 59 °F 50 °F 30 in NE 5.6 mph 6.2 mph 73% 0 in 0.00 W/m2 unknown
00:14 59 °F 50 °F 30 in NE 5 mph 8.1 mph 73% 0 in 0.00 W/m2 unknown
00:19 59 °F 50 °F 30 in NE 5 mph 8.1 mph 73% 0 in 0.00 W/m2 unknown
00:24 59 °F 50 °F 30 in ENE 3.7 mph 5 mph 73% 0 in 0.00 W/m2 unknown
00:29 59 °F 50 °F 30 in ENE 3.7 mph 5 mph 73% 0 in 0.00 W/m2 unknown
00:34 59 °F 50 °F 30 in ENE 3.7 mph 5 mph 74% 0 in 0.00 W/m2 unknown
00:39 59 °F 50 °F 30 in ENE 4.3 mph 5 mph 74% 0 in 0.00 W/m2 unknown
00:44 59 °F 50 °F 30 in ENE 5.6 mph 8.1 mph 74% 0 in 0.00 W/m2 unknown
00:49 59 °F 50 °F 30 in ENE 5.6 mph 8.1 mph 74% 0 in 0.00 W/m2 unknown
00:54 59 °F 50 °F 30 in ENE 5.6 mph 8.1 mph 73% 0 in 0.00 W/m2 unknown
00:59 59 °F 50 °F 30 in ENE 5.6 mph 8.1 mph 73% 0 in 0.00 W/m2 unknown
01:04 59 °F 50 °F 30 in ENE 5 mph 6.8 mph 72% 0 in 0.00 W/m2 unknown
01:09 59 °F 50 °F 30 in ENE 4.3 mph 6.2 mph 73% 0 in 0.00 W/m2 unknown
01:14 59 °F 50 °F 30 in ENE 3.1 mph 5 mph 73% 0 in 0.00 W/m2 unknown
01:19 57.2 °F 50 °F 30 in East 3.1 mph 5 mph 73% 0 in 0.00 W/m2 unknown
01:24 57.2 °F 50 °F 30 in East 3.7 mph 5 mph 74% 0 in 0.00 W/m2 unknown
01:29 57.2 °F 50 °F 30 in ENE 3.7 mph 5 mph 74% 0 in 0.00 W/m2 unknown
01:34 57.2 °F 50 °F 30 in ENE 3.7 mph 5 mph 75% 0 in 0.00 W/m2 unknown
01:39 57.2 °F 48.2 °F 30 in ENE 3.7 mph 5 mph 74% 0 in 0.00 W/m2 unknown
01:44 57.2 °F 48.2 °F 30 in ENE 3.1 mph 5 mph 74% 0 in 0.00 W/m2 unknown
01:49 57.2 °F 48.2 °F 30 in ENE 3.1 mph 3.7 mph 74% 0 in 0.00 W/m2 unknown
01:54 57.2 °F 48.2 °F 30 in ENE 3.7 mph 5 mph 75% 0 in 0.00 W/m2 unknown
01:59 57.2 °F 48.2 °F 30 in ENE 3.7 mph 5 mph 76% 0 in 0.00 W/m2 unknown
02:04 57.2 °F 48.2 °F 30 in ENE 3.7 mph 5 mph 76% 0 in 0.00 W/m2 unknown
02:09 55.4 °F 48.2 °F 30 in ENE 4.3 mph 6.2 mph 76% 0 in 0.00 W/m2 unknown
02:14 55.4 °F 48.2 °F 30 in ENE 5 mph 6.8 mph 76% 0 in 0.00 W/m2 unknown
02:19 55.4 °F 48.2 °F 30 in ENE 6.2 mph 9.3 mph 76% 0 in 0.00 W/m2 unknown
02:24 57.2 °F 48.2 °F 30 in ENE 6.8 mph 9.3 mph 74% 0 in 0.00 W/m2 unknown
02:29 57.2 °F 48.2 °F 30 in ENE 6.2 mph 8.7 mph 72% 0 in 0.00 W/m2 unknown
02:34 57.2 °F 48.2 °F 30 in NE 5.6 mph 9.3 mph 71% 0 in 0.00 W/m2 unknown
02:39 57.2 °F 48.2 °F 30 in NE 4.3 mph 8.1 mph 71% 0 in 0.00 W/m2 unknown
02:44 57.2 °F 48.2 °F 30 in NE 3.1 mph 3.7 mph 71% 0 in 0.00 W/m2 unknown
02:49 57.2 °F 48.2 °F 30 in ENE 4.3 mph 6.8 mph 72% 0 in 0.00 W/m2 unknown
02:54 57.2 °F 48.2 °F 30 in ENE 5.6 mph 8.1 mph 72% 0 in 0.00 W/m2 unknown
02:59 57.2 °F 48.2 °F 30 in ENE 6.2 mph 8.1 mph 72% 0 in 0.00 W/m2 unknown
03:04 57.2 °F 48.2 °F 30 in ENE 5 mph 8.1 mph 71% 0 in 0.00 W/m2 unknown
03:09 57.2 °F 48.2 °F 30 in ENE 6.2 mph 9.3 mph 71% 0 in 0.00 W/m2 unknown
03:14 57.2 °F 48.2 °F 30 in ENE 6.8 mph 9.3 mph 70% 0 in 0.00 W/m2 unknown
03:19 57.2 °F 48.2 °F 30 in ENE 6.8 mph 10.6 mph 71% 0 in 0.00 W/m2 unknown
03:24 57.2 °F 48.2 °F 30 in ENE 6.2 mph 9.9 mph 71% 0 in 0.00 W/m2 unknown
03:29 57.2 °F 48.2 °F 30 in ENE 6.2 mph 9.3 mph 72% 0 in 0.00 W/m2 unknown
03:34 57.2 °F 48.2 °F 30 in ENE 6.8 mph 9.3 mph 72% 0 in 0.00 W/m2 unknown
03:39 57.2 °F 48.2 °F 30 in NE 7.5 mph 11.2 mph 72% 0 in 0.00 W/m2 unknown
03:44 57.2 °F 48.2 °F 30 in ENE 8.1 mph 11.8 mph 72% 0 in 0.00 W/m2 unknown
03:49 57.2 °F 48.2 °F 30 in ENE 7.5 mph 11.8 mph 72% 0 in 0.00 W/m2 unknown
03:54 57.2 °F 48.2 °F 30 in ENE 6.8 mph 10.6 mph 72% 0 in 0.00 W/m2 unknown
03:59 57.2 °F 48.2 °F 30 in ENE 6.2 mph 9.9 mph 72% 0 in 0.00 W/m2 unknown
04:04 57.2 °F 48.2 °F 30 in ENE 5.6 mph 8.7 mph 73% 0 in 0.00 W/m2 unknown
04:09 57.2 °F 48.2 °F 30 in ENE 5 mph 6.8 mph 73% 0 in 0.00 W/m2 unknown
04:14 55.4 °F 48.2 °F 30 in ENE 5 mph 6.8 mph 73% 0 in 0.00 W/m2 unknown
04:19 55.4 °F 48.2 °F 30 in ENE 6.2 mph 9.3 mph 73% 0 in 0.00 W/m2 unknown
04:24 55.4 °F 48.2 °F 30 in ENE 6.8 mph 10.6 mph 73% 0 in 0.00 W/m2 unknown
04:29 55.4 °F 48.2 °F 30 in ENE 7.5 mph 10.6 mph 73% 0 in 0.00 W/m2 unknown
04:34 55.4 °F 48.2 °F 30 in ENE 7.5 mph 10.6 mph 74% 0 in 0.00 W/m2 unknown
04:39 55.4 °F 48.2 °F 30 in ENE 6.8 mph 9.9 mph 74% 0 in 0.00 W/m2 unknown
04:44 55.4 °F 48.2 °F 30 in ENE 6.2 mph 10.6 mph 74% 0 in 0.00 W/m2 unknown
04:49 55.4 °F 48.2 °F 30 in ENE 6.8 mph 9.9 mph 74% 0 in 0.00 W/m2 unknown
04:54 55.4 °F 48.2 °F 30 in ENE 6.8 mph 8.7 mph 74% 0 in 0.00 W/m2 unknown
04:59 55.4 °F 48.2 °F 30 in ENE 6.2 mph 9.3 mph 74% 0 in 0.00 W/m2 unknown
05:04 55.4 °F 48.2 °F 30 in ENE 6.2 mph 9.3 mph 74% 0 in 0.00 W/m2 unknown
05:09 55.4 °F 48.2 °F 30 in ENE 6.2 mph 8.7 mph 75% 0 in 0.00 W/m2 unknown
05:14 55.4 °F 48.2 °F 30 in ENE 5 mph 6.8 mph 75% 0 in 0.00 W/m2 unknown
05:19 55.4 °F 48.2 °F 30 in ENE 4.3 mph 6.8 mph 75% 0 in 0.00 W/m2 unknown
05:24 55.4 °F 48.2 °F 30 in ENE 4.3 mph 6.8 mph 76% 0 in 0.00 W/m2 unknown
05:29 55.4 °F 48.2 °F 30 in ENE 3.7 mph 6.8 mph 76% 0 in 0.00 W/m2 unknown
05:34 55.4 °F 48.2 °F 30 in ENE 4.3 mph 6.8 mph 76% 0 in 0.00 W/m2 unknown
05:39 55.4 °F 48.2 °F 30 in ENE 5 mph 6.8 mph 75% 0 in 0.00 W/m2 unknown
05:44 55.4 °F 48.2 °F 30 in ENE 3.1 mph 5 mph 75% 0 in 0.00 W/m2 unknown
05:49 55.4 °F 48.2 °F 30 in East 3.1 mph 6.2 mph 75% 0 in 0.00 W/m2 unknown
05:54 55.4 °F 48.2 °F 30 in East 4.3 mph 6.2 mph 75% 0 in 0.00 W/m2 unknown
05:59 55.4 °F 48.2 °F 30 in East 4.3 mph 6.2 mph 74% 0 in 0.00 W/m2 unknown
06:04 55.4 °F 46.4 °F 30 in East 3.1 mph 6.2 mph 74% 0 in 0.00 W/m2 unknown
06:09 55.4 °F 46.4 °F 30 in ESE 4.3 mph 5 mph 74% 0 in 0.00 W/m2 unknown
06:14 55.4 °F 46.4 °F 30 in ESE 3.7 mph 6.8 mph 74% 0 in 0.00 W/m2 unknown
06:19 55.4 °F 46.4 °F 30 in ESE 4.3 mph 6.8 mph 73% 0 in 0.00 W/m2 unknown
06:24 55.4 °F 48.2 °F 30 in ESE 3.7 mph 6.8 mph 74% 0 in 0.00 W/m2 unknown
06:29 55.4 °F 48.2 °F 30 in ESE 4.3 mph 6.8 mph 74% 0 in 0.00 W/m2 unknown
06:34 55.4 °F 48.2 °F 30 in ESE 3.7 mph 6.8 mph 74% 0 in 0.00 W/m2 unknown
06:39 55.4 °F 48.2 °F 30 in SE 4.3 mph 5 mph 75% 0 in 0.00 W/m2 unknown
06:44 55.4 °F 48.2 °F 30 in SE 2.5 mph 5 mph 75% 0 in 0.00 W/m2 unknown
06:49 55.4 °F 48.2 °F 30 in ESE 3.1 mph 3.7 mph 77% 0 in 0.00 W/m2 unknown
06:54 55.4 °F 48.2 °F 30 in SE 3.1 mph 3.7 mph 77% 0 in 0.00 W/m2 unknown
06:59 55.4 °F 48.2 °F 30 in SE 1.9 mph 3.7 mph 78% 0 in 0.00 W/m2 unknown
07:04 53.6 °F 48.2 °F 30 in SE 1.9 mph 3.7 mph 78% 0 in 0.00 W/m2 unknown
07:09 55.4 °F 48.2 °F 30 in SSE 1.9 mph 3.7 mph 78% 0 in 5.00 W/m2 unknown
07:14 55.4 °F 48.2 °F 30 in SSE 1.2 mph 3.1 mph 78% 0 in 9.00 W/m2 unknown
07:19 53.6 °F 48.2 °F 30 in ENE 3.7 mph 6.2 mph 79% 0 in 11.00 W/m2 unknown
07:24 55.4 °F 48.2 °F 30 in East 3.7 mph 6.8 mph 79% 0 in 14.00 W/m2 unknown
07:29 55.4 °F 48.2 °F 30 in East 1.9 mph 6.8 mph 77% 0 in 16.00 W/m2 unknown
07:34 55.4 °F 48.2 °F 30 in East 0.6 mph 3.1 mph 78% 0 in 18.00 W/m2 unknown
07:39 55.4 °F 48.2 °F 30 in SE 1.2 mph 1.9 mph 78% 0 in 19.00 W/m2 unknown
07:44 55.4 °F 48.2 °F 30 in SSW 2.5 mph 3.7 mph 79% 0 in 25.00 W/m2 unknown
07:49 55.4 °F 48.2 °F 30 in SSW 1.2 mph 2.5 mph 79% 0 in 39.00 W/m2 unknown
07:54 55.4 °F 48.2 °F 30 in SSW 0.6 mph 1.9 mph 80% 0 in 53.00 W/m2 unknown
07:59 55.4 °F 48.2 °F 30 in ESE 2.5 mph 5 mph 80% 0 in 63.00 W/m2 unknown
08:04 55.4 °F 50 °F 30 in East 3.1 mph 5 mph 79% 0 in 74.00 W/m2 unknown
08:09 57.2 °F 48.2 °F 30 in ESE 3.7 mph 6.2 mph 76% 0 in 88.00 W/m2 unknown
08:14 57.2 °F 48.2 °F 30 in East 3.1 mph 6.2 mph 74% 0 in 104.00 W/m2 unknown
08:19 57.2 °F 48.2 °F 30 in East 3.1 mph 6.2 mph 72% 0 in 114.00 W/m2 unknown
08:24 59 °F 48.2 °F 30 in ENE 3.7 mph 6.8 mph 71% 0 in 135.00 W/m2 unknown
08:29 59 °F 50 °F 30 in ENE 4.3 mph 6.8 mph 71% 0 in 153.00 W/m2 unknown
08:34 59 °F 50 °F 30 in ENE 7.5 mph 9.3 mph 70% 0 in 169.00 W/m2 unknown
08:39 59 °F 50 °F 30 in East 6.8 mph 8.7 mph 68% 0 in 181.00 W/m2 unknown
08:44 60.8 °F 50 °F 30 in ENE 6.2 mph 8.1 mph 68% 0 in 195.00 W/m2 unknown
08:49 60.8 °F 50 °F 30 in East 5.6 mph 6.8 mph 68% 0 in 195.00 W/m2 unknown
08:54 60.8 °F 50 °F 30 in East 6.8 mph 9.9 mph 68% 0 in 207.00 W/m2 unknown
08:59 60.8 °F 50 °F 30 in ENE 6.2 mph 10.6 mph 67% 0 in 237.00 W/m2 unknown
09:04 62.6 °F 50 °F 30 in East 6.2 mph 9.9 mph 67% 0 in 253.00 W/m2 unknown
09:09 62.6 °F 51.8 °F 30 in ENE 5.6 mph 9.9 mph 67% 0 in 267.00 W/m2 unknown
09:14 62.6 °F 51.8 °F 30 in ENE 8.7 mph 11.8 mph 67% 0 in 278.00 W/m2 unknown
09:19 62.6 °F 51.8 °F 30 in ENE 8.7 mph 11.8 mph 65% 0 in 292.00 W/m2 unknown
09:24 62.6 °F 51.8 °F 30.1 in ENE 8.7 mph 13 mph 65% 0 in 306.00 W/m2 unknown
09:29 64.4 °F 51.8 °F 30.1 in East 6.2 mph 13 mph 66% 0 in 316.00 W/m2 unknown
09:34 64.4 °F 51.8 °F 30.1 in ENE 6.8 mph 10.6 mph 65% 0 in 332.00 W/m2 unknown
09:39 64.4 °F 51.8 °F 30.1 in ENE 8.7 mph 10.6 mph 65% 0 in 346.00 W/m2 unknown
09:44 64.4 °F 51.8 °F 30.1 in ENE 9.3 mph 11.8 mph 65% 0 in 360.00 W/m2 unknown
09:49 64.4 °F 53.6 °F 30.1 in ENE 9.3 mph 11.8 mph 65% 0 in 371.00 W/m2 unknown
09:54 64.4 °F 53.6 °F 30.1 in ENE 7.5 mph 11.8 mph 65% 0 in 387.00 W/m2 unknown
09:59 66.2 °F 53.6 °F 30.1 in ENE 8.1 mph 11.8 mph 64% 0 in 397.00 W/m2 unknown
10:04 66.2 °F 53.6 °F 30.1 in ENE 7.5 mph 10.6 mph 64% 0 in 408.00 W/m2 unknown
10:09 66.2 °F 53.6 °F 30.1 in East 8.7 mph 11.8 mph 64% 0 in 424.00 W/m2 unknown
10:14 66.2 °F 53.6 °F 30.1 in ENE 6.8 mph 11.8 mph 65% 0 in 436.00 W/m2 unknown
10:19 66.2 °F 55.4 °F 30.1 in ENE 9.3 mph 11.8 mph 67% 0 in 450.00 W/m2 unknown
10:24 66.2 °F 55.4 °F 30.1 in NE 8.7 mph 11.8 mph 66% 0 in 459.00 W/m2 unknown
10:29 68 °F 55.4 °F 30.1 in ENE 6.2 mph 11.8 mph 66% 0 in 469.00 W/m2 unknown
10:34 68 °F 55.4 °F 30.1 in East 7.5 mph 9.3 mph 66% 0 in 482.00 W/m2 unknown
10:39 68 °F 55.4 °F 30.1 in NE 9.9 mph 14.3 mph 66% 0 in 494.00 W/m2 unknown
10:44 68 °F 55.4 °F 30.1 in NE 9.9 mph 14.3 mph 65% 0 in 503.00 W/m2 unknown
10:49 68 °F 55.4 °F 30.1 in NE 9.3 mph 10.6 mph 66% 0 in 513.00 W/m2 unknown
10:54 68 °F 55.4 °F 30.1 in ENE 8.7 mph 10.6 mph 64% 0 in 526.00 W/m2 unknown
10:59 68 °F 55.4 °F 30.1 in East 5.6 mph 11.2 mph 66% 0 in 533.00 W/m2 unknown
11:04 68 °F 57.2 °F 30.1 in ENE 7.5 mph 11.2 mph 66% 0 in 547.00 W/m2 unknown
11:09 68 °F 55.4 °F 30.1 in East 7.5 mph 9.9 mph 65% 0 in 555.00 W/m2 unknown
11:14 68 °F 55.4 °F 30.1 in East 6.2 mph 8.7 mph 64% 0 in 563.00 W/m2 unknown
11:19 68 °F 55.4 °F 30.1 in East 5 mph 8.1 mph 64% 0 in 575.00 W/m2 unknown
11:24 69.8 °F 57.2 °F 30.1 in ENE 5 mph 8.1 mph 65% 0 in 582.00 W/m2 unknown
11:29 69.8 °F 55.4 °F 30.1 in East 7.5 mph 11.2 mph 63% 0 in 589.00 W/m2 unknown
11:34 69.8 °F 55.4 °F 30.1 in East 8.1 mph 11.2 mph 64% 0 in 596.00 W/m2 unknown
11:39 69.8 °F 55.4 °F 30.1 in East 6.8 mph 9.9 mph 64% 0 in 608.00 W/m2 unknown
11:44 69.8 °F 57.2 °F 30.1 in East 8.1 mph 11.8 mph 64% 0 in 613.00 W/m2 unknown
11:49 69.8 °F 55.4 °F 30.1 in East 7.5 mph 11.8 mph 62% 0 in 621.00 W/m2 unknown
11:54 69.8 °F 55.4 °F 30 in ESE 4.3 mph 8.7 mph 64% 0 in 626.00 W/m2 unknown
11:59 69.8 °F 57.2 °F 30 in East 6.2 mph 8.1 mph 63% 0 in 635.00 W/m2 unknown
12:04 69.8 °F 55.4 °F 30 in ESE 6.2 mph 8.1 mph 63% 0 in 640.00 W/m2 unknown
12:09 69.8 °F 55.4 °F 30 in ESE 6.2 mph 8.1 mph 63% 0 in 645.00 W/m2 unknown
12:14 69.8 °F 57.2 °F 30 in SE 5 mph 8.1 mph 63% 0 in 650.00 W/m2 unknown
12:19 69.8 °F 57.2 °F 30 in ESE 6.2 mph 10.6 mph 63% 0 in 657.00 W/m2 unknown
12:24 69.8 °F 57.2 °F 30 in ESE 6.2 mph 10.6 mph 62% 0 in 661.00 W/m2 unknown
12:29 69.8 °F 55.4 °F 30 in ENE 6.8 mph 10.6 mph 60% 0 in 666.00 W/m2 unknown
12:34 71.6 °F 57.2 °F 30 in ESE 6.2 mph 9.9 mph 60% 0 in 668.00 W/m2 unknown
12:39 71.6 °F 57.2 °F 30 in ESE 6.2 mph 10.6 mph 61% 0 in 671.00 W/m2 unknown
12:44 71.6 °F 57.2 °F 30 in ESE 5.6 mph 8.7 mph 61% 0 in 679.00 W/m2 unknown
12:49 69.8 °F 57.2 °F 30 in East 7.5 mph 9.3 mph 61% 0 in 682.00 W/m2 unknown
12:54 71.6 °F 57.2 °F 30 in East 6.2 mph 8.7 mph 61% 0 in 684.00 W/m2 unknown
12:59 71.6 °F 57.2 °F 30 in East 6.2 mph 8.1 mph 60% 0 in 686.00 W/m2 unknown
13:04 71.6 °F 55.4 °F 30 in ENE 5.6 mph 8.1 mph 58% 0 in 686.00 W/m2 unknown
13:09 71.6 °F 57.2 °F 30 in ESE 8.1 mph 11.8 mph 59% 0 in 691.00 W/m2 unknown
13:14 71.6 °F 57.2 °F 30 in ENE 6.2 mph 11.8 mph 61% 0 in 691.00 W/m2 unknown
13:19 71.6 °F 57.2 °F 30 in East 5.6 mph 8.1 mph 61% 0 in 691.00 W/m2 unknown
13:24 71.6 °F 57.2 °F 30 in East 7.5 mph 9.3 mph 59% 0 in 691.00 W/m2 unknown
13:29 71.6 °F 55.4 °F 30 in ENE 8.1 mph 10.6 mph 58% 0 in 694.00 W/m2 unknown
13:34 71.6 °F 57.2 °F 30 in East 6.2 mph 9.9 mph 59% 0 in 700.00 W/m2 unknown
13:39 71.6 °F 55.4 °F 30 in ESE 6.8 mph 9.3 mph 57% 0 in 703.00 W/m2 unknown
13:44 71.6 °F 55.4 °F 30 in ENE 5 mph 8.7 mph 56% 0 in 712.00 W/m2 unknown
13:49 71.6 °F 57.2 °F 30 in East 4.3 mph 8.1 mph 59% 0 in 712.00 W/m2 unknown
13:54 71.6 °F 55.4 °F 30 in ESE 5 mph 8.1 mph 59% 0 in 100.00 W/m2 unknown
13:59 71.6 °F 55.4 °F 30 in ESE 6.2 mph 8.1 mph 58% 0 in 707.00 W/m2 unknown
14:04 71.6 °F 57.2 °F 30 in East 3.7 mph 8.1 mph 59% 0 in 696.00 W/m2 unknown
14:09 71.6 °F 57.2 °F 30 in East 5.6 mph 8.1 mph 59% 0 in 703.00 W/m2 unknown
14:14 71.6 °F 55.4 °F 30 in ESE 6.2 mph 8.1 mph 60% 0 in 97.00 W/m2 unknown
14:19 69.8 °F 57.2 °F 30 in ESE 5 mph 8.1 mph 63% 0 in 731.00 W/m2 unknown
14:24 71.6 °F 57.2 °F 30 in ESE 4.3 mph 6.8 mph 62% 0 in 731.00 W/m2 unknown
14:29 71.6 °F 57.2 °F 30 in East 7.5 mph 9.3 mph 60% 0 in 128.00 W/m2 unknown
14:34 71.6 °F 55.4 °F 30 in SE 6.8 mph 8.7 mph 60% 0 in 135.00 W/m2 unknown
14:39 71.6 °F 57.2 °F 30 in ESE 5 mph 6.8 mph 60% 0 in 134.00 W/m2 unknown
14:44 71.6 °F 57.2 °F 30 in East 5 mph 6.2 mph 61% 0 in 679.00 W/m2 unknown
14:49 71.6 °F 57.2 °F 30 in ESE 5.6 mph 9.3 mph 60% 0 in 656.00 W/m2 unknown
14:54 71.6 °F 57.2 °F 30 in SE 6.2 mph 8.7 mph 59% 0 in 654.00 W/m2 unknown
14:59 71.6 °F 57.2 °F 30 in East 6.2 mph 8.1 mph 59% 0 in 141.00 W/m2 unknown
15:04 71.6 °F 57.2 °F 30 in East 5 mph 8.1 mph 62% 0 in 236.00 W/m2 unknown
15:09 71.6 °F 57.2 °F 30 in ENE 5 mph 6.8 mph 62% 0 in 696.00 W/m2 unknown
15:14 73.4 °F 57.2 °F 30 in East 5.6 mph 6.8 mph 59% 0 in 663.00 W/m2 unknown
15:19 73.4 °F 57.2 °F 30 in East 6.8 mph 10.6 mph 58% 0 in 663.00 W/m2 unknown
15:24 73.4 °F 57.2 °F 30 in ENE 6.8 mph 11.2 mph 58% 0 in 654.00 W/m2 unknown
15:29 73.4 °F 59 °F 30 in East 6.2 mph 8.7 mph 59% 0 in 656.00 W/m2 unknown
15:34 73.4 °F 59 °F 30 in East 7.5 mph 9.3 mph 59% 0 in 659.00 W/m2 unknown
15:39 73.4 °F 57.2 °F 30 in ENE 6.2 mph 8.7 mph 58% 0 in 657.00 W/m2 unknown
15:44 73.4 °F 57.2 °F 30 in ENE 6.8 mph 8.1 mph 58% 0 in 608.00 W/m2 unknown
15:49 73.4 °F 57.2 °F 30 in ENE 6.8 mph 8.1 mph 58% 0 in 599.00 W/m2 unknown
15:54 73.4 °F 57.2 °F 30 in ENE 6.8 mph 9.3 mph 58% 0 in 561.00 W/m2 unknown
15:59 73.4 °F 57.2 °F 30 in East 6.2 mph 8.7 mph 57% 0 in 550.00 W/m2 unknown
16:04 73.4 °F 57.2 °F 30 in East 5.6 mph 8.1 mph 58% 0 in 534.00 W/m2 unknown
16:09 73.4 °F 57.2 °F 30 in East 4.3 mph 8.1 mph 58% 0 in 527.00 W/m2 unknown
16:14 73.4 °F 57.2 °F 30 in ENE 4.3 mph 5 mph 57% 0 in 513.00 W/m2 unknown
16:19 73.4 °F 57.2 °F 30 in NE 5 mph 8.1 mph 57% 0 in 492.00 W/m2 unknown
16:24 73.4 °F 57.2 °F 30 in East 6.2 mph 9.3 mph 57% 0 in 489.00 W/m2 unknown
16:29 73.4 °F 57.2 °F 30 in ENE 6.8 mph 9.3 mph 57% 0 in 471.00 W/m2 unknown
16:34 73.4 °F 57.2 °F 30 in ENE 6.8 mph 9.3 mph 56% 0 in 417.00 W/m2 unknown
16:39 73.4 °F 57.2 °F 30 in ENE 6.2 mph 8.1 mph 57% 0 in 436.00 W/m2 unknown
16:44 73.4 °F 57.2 °F 30 in ENE 4.3 mph 6.8 mph 57% 0 in 432.00 W/m2 unknown
16:49 73.4 °F 57.2 °F 30 in ENE 3.7 mph 5 mph 57% 0 in 411.00 W/m2 unknown
16:54 73.4 °F 57.2 °F 30 in NE 3.7 mph 5 mph 56% 0 in 404.00 W/m2 unknown
16:59 73.4 °F 57.2 °F 30 in East 3.7 mph 5 mph 56% 0 in 388.00 W/m2 unknown
17:04 73.4 °F 55.4 °F 30 in ENE 4.3 mph 6.2 mph 55% 0 in 381.00 W/m2 unknown
17:09 73.4 °F 55.4 °F 30 in NE 3.7 mph 6.2 mph 54% 0 in 353.00 W/m2 unknown
17:14 73.4 °F 55.4 °F 30 in East 4.3 mph 6.8 mph 55% 0 in 334.00 W/m2 unknown
17:19 73.4 °F 55.4 °F 30 in East 4.3 mph 6.8 mph 55% 0 in 308.00 W/m2 unknown
17:24 73.4 °F 57.2 °F 30 in NE 3.7 mph 5 mph 57% 0 in 308.00 W/m2 unknown
17:29 73.4 °F 57.2 °F 30 in ENE 3.7 mph 6.2 mph 57% 0 in 290.00 W/m2 unknown
17:34 73.4 °F 57.2 °F 30 in ENE 3.7 mph 6.2 mph 57% 0 in 278.00 W/m2 unknown
17:39 73.4 °F 57.2 °F 30 in ENE 3.7 mph 5 mph 57% 0 in 262.00 W/m2 unknown
17:44 73.4 °F 55.4 °F 30 in ENE 3.1 mph 3.7 mph 55% 0 in 248.00 W/m2 unknown
17:49 73.4 °F 53.6 °F 30 in ENE 1.9 mph 3.7 mph 53% 0 in 234.00 W/m2 unknown
17:54 73.4 °F 53.6 °F 30 in East 1.9 mph 3.7 mph 51% 0 in 218.00 W/m2 unknown
17:59 73.4 °F 53.6 °F 30 in East 1.9 mph 3.7 mph 52% 0 in 204.00 W/m2 unknown
18:04 71.6 °F 53.6 °F 30 in ESE 2.5 mph 3.7 mph 53% 0 in 188.00 W/m2 unknown
18:09 71.6 °F 53.6 °F 30 in ESE 1.9 mph 3.1 mph 54% 0 in 169.00 W/m2 unknown
18:14 71.6 °F 53.6 °F 30 in ESE 1.2 mph 2.5 mph 52% 0 in 151.00 W/m2 unknown
18:19 71.6 °F 53.6 °F 30 in ESE 1.2 mph 1.9 mph 54% 0 in 134.00 W/m2 unknown
18:24 71.6 °F 55.4 °F 30 in ESE 1.2 mph 2.5 mph 55% 0 in 113.00 W/m2 unknown
18:29 71.6 °F 53.6 °F 30 in ESE 1.2 mph 1.9 mph 54% 0 in 30.00 W/m2 unknown
18:34 71.6 °F 55.4 °F 30 in East 0.6 mph 1.2 mph 56% 0 in 67.00 W/m2 unknown
18:39 71.6 °F 53.6 °F 30 in ENE 0.6 mph 1.2 mph 56% 0 in 67.00 W/m2 unknown
18:44 69.8 °F 55.4 °F 30 in ENE 1.2 mph 2.5 mph 59% 0 in 58.00 W/m2 unknown
18:49 69.8 °F 55.4 °F 30 in ENE 1.2 mph 2.5 mph 60% 0 in 46.00 W/m2 unknown
18:54 69.8 °F 55.4 °F 30 in ENE 0.6 mph 1.9 mph 62% 0 in 35.00 W/m2 unknown
18:59 69.8 °F 55.4 °F 30 in Calm   1.2 mph 63% 0 in 16.00 W/m2 unknown
19:04 69.8 °F 55.4 °F 30 in Calm   1.2 mph 65% 0 in 14.00 W/m2 unknown
19:09 68 °F 55.4 °F 30 in Calm     65% 0 in 11.00 W/m2 unknown
19:14 68 °F 55.4 °F 30 in Calm     66% 0 in 9.00 W/m2 unknown
19:19 68 °F 55.4 °F 30 in Calm     67% 0 in 5.00 W/m2 unknown
19:24 66.2 °F 55.4 °F 30 in Calm     70% 0 in 0.00 W/m2 unknown
19:29 66.2 °F 55.4 °F 30 in Calm     71% 0 in 0.00 W/m2 unknown
19:34 66.2 °F 55.4 °F 30 in Calm     72% 0 in 0.00 W/m2 unknown
19:39 66.2 °F 55.4 °F 30 in NE 1.9 mph 3.7 mph 71% 0 in 0.00 W/m2 unknown
19:44 64.4 °F 55.4 °F 30 in NE 1.9 mph 3.1 mph 70% 0 in 0.00 W/m2 unknown
19:49 64.4 °F 55.4 °F 30 in NE 1.2 mph 2.5 mph 70% 0 in 0.00 W/m2 unknown
19:54 64.4 °F 55.4 °F 30 in NE 1.2 mph 2.5 mph 71% 0 in 0.00 W/m2 unknown
19:59 64.4 °F 53.6 °F 30 in ENE 1.9 mph 3.7 mph 70% 0 in 0.00 W/m2 unknown
20:04 64.4 °F 53.6 °F 30 in ENE 2.5 mph 3.7 mph 69% 0 in 0.00 W/m2 unknown
20:09 64.4 °F 53.6 °F 30 in ENE 2.5 mph 3.7 mph 69% 0 in 0.00 W/m2 unknown
20:14 64.4 °F 53.6 °F 30 in ENE 1.9 mph 3.1 mph 70% 0 in 0.00 W/m2 unknown
20:19 64.4 °F 55.4 °F 30 in ENE 1.9 mph 3.7 mph 72% 0 in 0.00 W/m2 unknown
20:24 64.4 °F 55.4 °F 30 in ENE 1.9 mph 3.7 mph 72% 0 in 0.00 W/m2 unknown
20:29 64.4 °F 55.4 °F 30 in ENE 1.9 mph 2.5 mph 73% 0 in 0.00 W/m2 unknown
20:34 62.6 °F 55.4 °F 30 in East 1.9 mph 2.5 mph 73% 0 in 0.00 W/m2 unknown
20:39 62.6 °F 55.4 °F 30 in ENE 1.9 mph 3.7 mph 74% 0 in 0.00 W/m2 unknown
20:44 64.4 °F 55.4 °F 30 in East 2.5 mph 3.7 mph 74% 0 in 0.00 W/m2 unknown
20:49 64.4 °F 55.4 °F 30 in East 2.5 mph 3.7 mph 74% 0 in 0.00 W/m2 unknown
20:54 62.6 °F 55.4 °F 30 in ENE 2.5 mph 3.7 mph 74% 0 in 0.00 W/m2 unknown
20:59 62.6 °F 55.4 °F 30 in ENE 3.1 mph 3.7 mph 74% 0 in 0.00 W/m2 unknown
21:04 62.6 °F 55.4 °F 30 in ENE 3.1 mph 3.7 mph 75% 0 in 0.00 W/m2 unknown
21:09 62.6 °F 55.4 °F 30 in ENE 3.1 mph 3.7 mph 75% 0 in 0.00 W/m2 unknown
21:14 62.6 °F 55.4 °F 30 in ENE 3.1 mph 5 mph 75% 0 in 0.00 W/m2 unknown
21:19 62.6 °F 55.4 °F 30 in ENE 3.1 mph 5 mph 75% 0 in 0.00 W/m2 unknown
21:24 62.6 °F 55.4 °F 30 in East 3.7 mph 6.2 mph 75% 0 in 0.00 W/m2 unknown
21:29 62.6 °F 55.4 °F 30 in East 3.7 mph 6.2 mph 75% 0 in 0.00 W/m2 unknown
21:34 62.6 °F 55.4 °F 30 in East 3.1 mph 6.2 mph 76% 0 in 0.00 W/m2 unknown
21:39 62.6 °F 55.4 °F 30 in ENE 3.1 mph 5 mph 76% 0 in 0.00 W/m2 unknown
21:44 62.6 °F 55.4 °F 30 in ENE 2.5 mph 3.7 mph 77% 0 in 0.00 W/m2 unknown
21:49 62.6 °F 55.4 °F 30 in ENE 2.5 mph 3.7 mph 77% 0 in 0.00 W/m2 unknown
21:54 62.6 °F 55.4 °F 30 in ENE 2.5 mph 3.7 mph 78% 0 in 0.00 W/m2 unknown
21:59 62.6 °F 55.4 °F 30 in ENE 2.5 mph 3.7 mph 78% 0 in 0.00 W/m2 unknown
22:04 62.6 °F 55.4 °F 30 in ENE 2.5 mph 3.7 mph 78% 0 in 0.00 W/m2 unknown
22:09 62.6 °F 55.4 °F 30 in ENE 2.5 mph 3.7 mph 78% 0 in 0.00 W/m2 unknown
22:14 62.6 °F 55.4 °F 30 in ENE 2.5 mph 3.7 mph 79% 0 in 0.00 W/m2 unknown
22:19 62.6 °F 55.4 °F 30 in ENE 2.5 mph 3.7 mph 79% 0 in 0.00 W/m2 unknown
22:24 62.6 °F 55.4 °F 30 in ENE 2.5 mph 3.7 mph 79% 0 in 0.00 W/m2 unknown
22:29 60.8 °F 55.4 °F 30 in NE 2.5 mph 3.7 mph 80% 0 in 0.00 W/m2 unknown
22:34 60.8 °F 55.4 °F 30 in NE 3.7 mph 5 mph 81% 0 in 0.00 W/m2 unknown
22:39 60.8 °F 55.4 °F 30 in NE 3.7 mph 5 mph 81% 0 in 0.00 W/m2 unknown
22:44 60.8 °F 55.4 °F 30 in NE 1.9 mph 3.7 mph 82% 0 in 0.00 W/m2 unknown
22:49 60.8 °F 55.4 °F 30 in NE 3.1 mph 3.7 mph 82% 0 in 0.00 W/m2 unknown
22:54 60.8 °F 55.4 °F 30 in NE 3.7 mph 5 mph 82% 0 in 0.00 W/m2 unknown
22:59 60.8 °F 55.4 °F 30 in NE 3.7 mph 5 mph 83% 0 in 0.00 W/m2 unknown
23:04 60.8 °F 55.4 °F 30 in NE 3.1 mph 5 mph 83% 0 in 0.00 W/m2 unknown
23:09 59 °F 55.4 °F 30 in NE 3.1 mph 5 mph 83% 0 in 0.00 W/m2 unknown
23:14 59 °F 55.4 °F 30 in NE 3.1 mph 5 mph 83% 0 in 0.00 W/m2 unknown
23:19 59 °F 53.6 °F 30 in NE 3.7 mph 5 mph 83% 0 in 0.00 W/m2 unknown
23:24 59 °F 53.6 °F 30 in ENE 3.7 mph 6.2 mph 83% 0 in 0.00 W/m2 unknown
23:29 59 °F 53.6 °F 30 in ENE 4.3 mph 6.8 mph 83% 0 in 0.00 W/m2 unknown
23:34 59 °F 53.6 °F 30 in ENE 4.3 mph 6.8 mph 83% 0 in 0.00 W/m2 unknown
23:39 59 °F 53.6 °F 30 in ENE 3.1 mph 6.2 mph 83% 0 in 0.00 W/m2 unknown
23:44 59 °F 53.6 °F 30.1 in NE 3.1 mph 5 mph 83% 0 in 0.00 W/m2 unknown
23:49 59 °F 53.6 °F 30.1 in NE 2.5 mph 3.7 mph 83% 0 in 0.00 W/m2 unknown
23:54 59 °F 53.6 °F 30.1 in NE 2.5 mph 3.7 mph 84% 0 in 0.00 W/m2 unknown
23:59 59 °F 53.6 °F 30.1 in NE 2.5 mph 3.7 mph 84% 0 in 0.00 W/m2 unknown
Stazione Meteorologica MeteoMincio Rivalta s/M (MN)
Con i complimenti di Weather Underground - 4 mb



GLOSSARIO METEOROLOGICO
Indice di calore (Heat Index)
Utilizza la temperatura e l'umidità relativa per determinare la sensazione di calore dell'aria. Quando l'umidità è bassa, la temperatura apparente sarà minore della temperatura dell'aria, dal momento che la traspirazione evapora rapidamente e raffredda il corpo. Quando l'umidità è alta, la temperatura apparente sembrerà più alta dell'attuale temperatura dell'aria, perchè la traspirazione del corpo evapora più lentamente.
Share

Non seguire questo link o sarai bannato dal sito!